Time;durP1;ratioP1;P1;durP2;ratioP2;P2;SDS_P1;SDS_P2;PMS_P1;PMS_P2;Temp;Humidity;BMP_temperature;BMP_pressure;BME280_temperature;BME280_humidity;BME280_pressure;Samples;Min_cycle;Max_cycle;Signal;HPM_P1;HPM_P2
2022/05/26 00:01:52;;;;;;;2.83;1.77;;;;;;;;;;5039415;28;20211;-85
2022/05/26 00:04:57;;;;;;;1.87;1.53;;;;;;;;;;5037422;28;20183;-85
2022/05/26 00:08:01;;;;;;;2.70;1.77;;;;;;;;;;5034889;28;20179;-84
2022/05/26 00:11:11;;;;;;;2.43;1.63;;;;;;;;;;5049582;28;20223;-85
2022/05/26 00:14:15;;;;;;;2.60;1.83;;;;;;;;;;5038636;28;20187;-85
2022/05/26 00:17:21;;;;;;;2.00;1.67;;;;;;;;;;5050122;28;20626;-85
2022/05/26 00:20:25;;;;;;;1.90;1.70;;;;;;;;;;5038864;28;20562;-85
2022/05/26 00:23:29;;;;;;;2.90;1.80;;;;;;;;;;5049789;28;20175;-85
2022/05/26 00:26:33;;;;;;;3.23;1.67;;;;;;;;;;5033504;28;20196;-85
2022/05/26 00:29:38;;;;;;;2.60;1.80;;;;;;;;;;5044985;28;20192;-87
2022/05/26 00:32:42;;;;;;;2.00;1.53;;;;;;;;;;5021852;28;20200;-87
2022/05/26 00:35:46;;;;;;;1.80;1.70;;;;;;;;;;5033459;28;20184;-87
2022/05/26 00:38:50;;;;;;;2.20;1.73;;;;;;;;;;5033190;28;20184;-87
2022/05/26 00:42:01;;;;;;;3.17;1.70;;;;;;;;;;5021901;28;20219;-87
2022/05/26 00:45:07;;;;;;;2.07;1.53;;;;;;;;;;5041520;28;20184;-87
2022/05/26 00:48:14;;;;;;;4.07;1.70;;;;;;;;;;5032845;28;20184;-87
2022/05/26 00:51:25;;;;;;;4.73;1.93;;;;;;;;;;5021785;28;20224;-87
2022/05/26 00:54:30;;;;;;;2.33;1.53;;;;;;;;;;5033039;28;20200;-87
2022/05/26 00:57:37;;;;;;;2.27;1.90;;;;;;;;;;5033012;28;20177;-87
2022/05/26 01:00:41;;;;;;;2.73;1.73;;;;;;;;;;5038073;28;20216;-84
2022/05/26 01:03:51;;;;;;;4.93;1.70;;;;;;;;;;5059440;28;20191;-85
2022/05/26 01:07:05;;;;;;;1.83;1.73;;;;;;;;;;5053473;28;20180;-84
2022/05/26 01:10:12;;;;;;;1.97;1.60;;;;;;;;;;5040082;28;20179;-85
2022/05/26 01:13:18;;;;;;;3.13;2.00;;;;;;;;;;5044680;28;20543;-84
2022/05/26 01:16:48;;;;;;;4.40;1.77;;;;;;;;;;5034592;28;20184;-85
2022/05/26 01:20:04;;;;;;;6.30;1.70;;;;;;;;;;5022520;28;20226;-84
2022/05/26 01:23:11;;;;;;;3.20;1.50;;;;;;;;;;5027867;28;20196;-84
2022/05/26 01:26:52;;;;;;;2.80;1.50;;;;;;;;;;5052752;28;20199;-84
2022/05/26 01:30:20;;;;;;;2.47;1.97;;;;;;;;;;5044432;28;20191;-85
2022/05/26 01:33:34;;;;;;;5.33;1.87;;;;;;;;;;5044050;28;20199;-85
2022/05/26 01:37:09;;;;;;;5.63;2.00;;;;;;;;;;5021285;28;20200;-84
2022/05/26 01:40:22;;;;;;;5.13;1.60;;;;;;;;;;5021619;28;20185;-85
2022/05/26 01:43:37;;;;;;;2.97;2.03;;;;;;;;;;5043812;28;20532;-84
2022/05/26 01:46:43;;;;;;;8.20;2.03;;;;;;;;;;5052165;28;20184;-84
2022/05/26 01:49:55;;;;;;;6.37;2.00;;;;;;;;;;5052372;28;20187;-85
2022/05/26 01:53:24;;;;;;;2.37;1.90;;;;;;;;;;5052286;28;20199;-85
2022/05/26 01:56:44;;;;;;;2.37;2.00;;;;;;;;;;5052217;28;20637;-84
2022/05/26 01:59:56;;;;;;;3.73;1.70;;;;;;;;;;5040988;28;20179;-84
2022/05/26 02:03:14;;;;;;;1.53;1.43;;;;;;;;;;5040854;28;20516;-84
2022/05/26 02:06:31;;;;;;;3.50;1.80;;;;;;;;;;5051947;28;20183;-84
2022/05/26 02:09:41;;;;;;;4.00;2.00;;;;;;;;;;5051641;28;20180;-85
2022/05/26 02:12:52;;;;;;;2.47;1.80;;;;;;;;;;5052072;28;20208;-87
2022/05/26 02:16:51;;;;;;;4.70;2.27;;;;;;;;;;5026178;28;20189;-86
2022/05/26 02:20:05;;;;;;;2.63;1.87;;;;;;;;;;4969085;28;20187;-84
2022/05/26 02:23:17;;;;;;;3.67;1.90;;;;;;;;;;5032744;28;20623;-84
2022/05/26 02:26:21;;;;;;;3.10;1.90;;;;;;;;;;5020536;28;20180;-85
2022/05/26 02:32:52;;;;;;;3.00;1.90;;;;;;;;;;5043081;28;20208;-84
2022/05/26 02:35:56;;;;;;;2.90;1.97;;;;;;;;;;5020538;28;20184;-84
2022/05/26 02:39:00;;;;;;;3.10;2.13;;;;;;;;;;5020551;28;20172;-84
2022/05/26 02:42:04;;;;;;;3.17;2.17;;;;;;;;;;5031927;28;20212;-84
2022/05/26 02:45:09;;;;;;;2.33;2.13;;;;;;;;;;5031956;28;20188;-84
2022/05/26 02:48:16;;;;;;;4.40;2.27;;;;;;;;;;5045751;28;20183;-84
2022/05/26 02:51:47;;;;;;;6.13;2.40;;;;;;;;;;5051416;28;20207;-84
2022/05/26 02:55:06;;;;;;;2.73;2.13;;;;;;;;;;5013539;28;20195;-84
2022/05/26 02:58:23;;;;;;;4.63;2.40;;;;;;;;;;5020464;28;20184;-84
2022/05/26 03:01:40;;;;;;;2.80;2.10;;;;;;;;;;5031365;28;20219;-85
2022/05/26 03:05:01;;;;;;;1.97;1.80;;;;;;;;;;5031968;28;20181;-84
2022/05/26 03:08:08;;;;;;;2.60;2.40;;;;;;;;;;5031236;28;20639;-86
2022/05/26 03:11:18;;;;;;;9.80;2.70;;;;;;;;;;5030406;28;20227;-87
2022/05/26 03:14:23;;;;;;;2.87;2.37;;;;;;;;;;5019249;28;20173;-87
2022/05/26 03:17:27;;;;;;;2.77;1.67;;;;;;;;;;5038931;28;20191;-86
2022/05/26 03:20:31;;;;;;;3.23;1.80;;;;;;;;;;5041375;28;20216;-86
2022/05/26 03:23:36;;;;;;;2.33;1.83;;;;;;;;;;5060140;28;20180;-87
2022/05/26 03:26:41;;;;;;;7.97;1.87;;;;;;;;;;5018976;28;20200;-87
2022/05/26 03:29:45;;;;;;;3.63;2.70;;;;;;;;;;5030077;28;20184;-86
2022/05/26 03:32:49;;;;;;;1.60;1.50;;;;;;;;;;5041530;28;20195;-87
2022/05/26 03:42:39;;;;;;;2.70;2.00;;;;;;;;;;5049434;28;20175;-87
2022/05/26 03:45:43;;;;;;;2.97;1.80;;;;;;;;;;5049903;28;20180;-86
2022/05/26 03:48:47;;;;;;;5.13;2.00;;;;;;;;;;5061167;28;20180;-87
2022/05/26 03:51:51;;;;;;;3.40;1.80;;;;;;;;;;5032218;28;20212;-86
2022/05/26 03:54:55;;;;;;;3.07;1.70;;;;;;;;;;5038160;28;20183;-87
2022/05/26 03:58:01;;;;;;;1.90;1.80;;;;;;;;;;5019376;28;20188;-87
2022/05/26 04:01:07;;;;;;;3.87;1.90;;;;;;;;;;5040859;28;20215;-87
2022/05/26 04:04:11;;;;;;;2.40;2.10;;;;;;;;;;5040923;28;20172;-87
2022/05/26 04:07:15;;;;;;;2.90;1.90;;;;;;;;;;5029807;28;20180;-87
2022/05/26 04:10:20;;;;;;;3.23;1.83;;;;;;;;;;5029690;28;20612;-87
2022/05/26 04:13:24;;;;;;;4.13;1.97;;;;;;;;;;5018485;28;20203;-87
2022/05/26 04:16:28;;;;;;;4.03;1.80;;;;;;;;;;5018309;28;20188;-87
2022/05/26 04:19:33;;;;;;;3.70;1.60;;;;;;;;;;5032819;28;20183;-87
2022/05/26 04:22:37;;;;;;;1.60;1.40;;;;;;;;;;5049303;28;20195;-87
2022/05/26 04:25:41;;;;;;;1.40;1.10;;;;;;;;;;5040879;28;20690;-87
2022/05/26 04:28:45;;;;;;;4.20;1.63;;;;;;;;;;5018161;28;20659;-87
2022/05/26 04:31:50;;;;;;;3.60;1.50;;;;;;;;;;5018250;28;20254;-87
2022/05/26 04:34:54;;;;;;;2.03;1.73;;;;;;;;;;5018111;28;20176;-87
2022/05/26 04:37:58;;;;;;;4.93;1.77;;;;;;;;;;5029229;28;20208;-87
2022/05/26 04:41:06;;;;;;;2.53;1.53;;;;;;;;;;5018486;28;20220;-85
2022/05/26 04:44:11;;;;;;;2.20;1.50;;;;;;;;;;5018296;28;20177;-87
2022/05/26 04:47:17;;;;;;;1.90;1.50;;;;;;;;;;5018250;28;20204;-85
2022/05/26 04:50:21;;;;;;;2.13;1.50;;;;;;;;;;5018812;28;20216;-85
2022/05/26 04:53:25;;;;;;;2.27;1.50;;;;;;;;;;5018649;28;20204;-85
2022/05/26 04:56:30;;;;;;;7.27;1.60;;;;;;;;;;5018773;28;20208;-87
2022/05/26 04:59:35;;;;;;;2.63;1.50;;;;;;;;;;5027533;28;20203;-88
2022/05/26 05:02:40;;;;;;;2.50;1.40;;;;;;;;;;5049418;28;20195;-88
2022/05/26 05:05:43;;;;;;;6.00;1.87;;;;;;;;;;5028972;28;20196;-87
2022/05/26 05:08:47;;;;;;;1.80;1.63;;;;;;;;;;5018294;28;20524;-87
2022/05/26 05:11:52;;;;;;;3.27;1.53;;;;;;;;;;5038444;23;20237;-84
2022/05/26 05:14:56;;;;;;;3.27;1.50;;;;;;;;;;5032268;28;20185;-84
2022/05/26 05:18:01;;;;;;;1.73;1.53;;;;;;;;;;5021446;28;20189;-85
2022/05/26 05:21:10;;;;;;;6.33;1.60;;;;;;;;;;4999896;28;20692;-85
2022/05/26 05:24:23;;;;;;;4.83;1.70;;;;;;;;;;5006459;28;20660;-85
2022/05/26 05:27:40;;;;;;;2.37;1.50;;;;;;;;;;5004646;28;20197;-84
2022/05/26 05:30:59;;;;;;;7.57;1.83;;;;;;;;;;5010175;28;20190;-87
2022/05/26 05:34:11;;;;;;;2.30;1.50;;;;;;;;;;4987363;28;20214;-85
2022/05/26 05:37:15;;;;;;;3.17;1.60;;;;;;;;;;4996302;28;20629;-85
2022/05/26 05:40:20;;;;;;;1.40;1.30;;;;;;;;;;5004306;28;20193;-85
2022/05/26 05:43:23;;;;;;;3.50;1.40;;;;;;;;;;5015716;28;20185;-85
2022/05/26 05:46:34;;;;;;;2.23;1.50;;;;;;;;;;5004842;28;20186;-85
2022/05/26 05:49:38;;;;;;;3.20;1.60;;;;;;;;;;5003691;28;20648;-85
2022/05/26 05:52:42;;;;;;;5.53;1.63;;;;;;;;;;5026387;28;20216;-85
2022/05/26 05:55:47;;;;;;;2.07;1.40;;;;;;;;;;5016252;28;20636;-84
2022/05/26 05:58:52;;;;;;;6.23;1.40;;;;;;;;;;5016234;28;20181;-85
2022/05/26 06:01:56;;;;;;;2.30;1.40;;;;;;;;;;5005020;28;20213;-86
2022/05/26 06:05:02;;;;;;;2.63;1.50;;;;;;;;;;5004317;28;20186;-85
2022/05/26 06:08:06;;;;;;;2.70;1.50;;;;;;;;;;5004422;28;20182;-86
2022/05/26 06:11:10;;;;;;;4.10;1.40;;;;;;;;;;4993363;28;20228;-85
2022/05/26 06:14:15;;;;;;;2.63;1.33;;;;;;;;;;5015272;28;20213;-87
2022/05/26 06:17:20;;;;;;;2.67;1.33;;;;;;;;;;4993304;28;20193;-86
2022/05/26 06:20:24;;;;;;;1.07;0.97;;;;;;;;;;5004839;28;20648;-85
2022/05/26 06:23:28;;;;;;;3.17;1.50;;;;;;;;;;5004662;28;20181;-85
2022/05/26 06:26:32;;;;;;;2.03;1.30;;;;;;;;;;5004806;28;20177;-85
2022/05/26 06:29:51;;;;;;;3.03;1.00;;;;;;;;;;4996185;28;20190;-85
2022/05/26 06:39:42;;;;;;;3.53;0.80;;;;;;;;;;5014758;28;20193;-85
2022/05/26 06:42:47;;;;;;;2.23;0.80;;;;;;;;;;5025432;28;20217;-85
2022/05/26 06:45:52;;;;;;;1.50;0.90;;;;;;;;;;5015435;28;20181;-85
2022/05/26 06:48:56;;;;;;;3.50;1.00;;;;;;;;;;4984861;28;20190;-84
2022/05/26 06:52:02;;;;;;;2.60;0.60;;;;;;;;;;4993239;28;20221;-85
2022/05/26 06:55:08;;;;;;;2.90;0.80;;;;;;;;;;5002532;28;20565;-86
2022/05/26 06:58:12;;;;;;;1.80;0.70;;;;;;;;;;5025326;28;20181;-84
2022/05/26 07:01:16;;;;;;;1.73;0.70;;;;;;;;;;4998533;28;20549;-84
2022/05/26 07:04:20;;;;;;;2.63;0.70;;;;;;;;;;4983701;28;20182;-83
2022/05/26 07:07:25;;;;;;;5.30;0.90;;;;;;;;;;4994845;28;20186;-83
2022/05/26 07:10:33;;;;;;;2.53;0.77;;;;;;;;;;4999899;28;20201;-84
2022/05/26 07:13:38;;;;;;;1.73;0.70;;;;;;;;;;5006038;28;20210;-82
2022/05/26 07:16:44;;;;;;;1.07;0.60;;;;;;;;;;5016297;28;20197;-83
2022/05/26 07:19:48;;;;;;;3.30;0.60;;;;;;;;;;5013545;28;20205;-84
2022/05/26 07:22:52;;;;;;;1.73;0.60;;;;;;;;;;5001765;28;20557;-83
2022/05/26 07:25:56;;;;;;;8.17;1.13;;;;;;;;;;5001060;28;20173;-86
2022/05/26 07:29:01;;;;;;;1.43;0.90;;;;;;;;;;4993924;28;20182;-84
2022/05/26 07:32:05;;;;;;;1.00;0.67;;;;;;;;;;5005513;28;20699;-85
2022/05/26 07:35:10;;;;;;;1.47;0.60;;;;;;;;;;5002616;28;20209;-84
2022/05/26 07:41:36;;;;;;;1.53;0.90;;;;;;;;;;5010505;28;20687;-84
2022/05/26 07:44:43;;;;;;;3.60;0.70;;;;;;;;;;5002246;28;20636;-84
2022/05/26 07:47:47;;;;;;;1.90;0.70;;;;;;;;;;5013352;28;20201;-84
2022/05/26 07:50:52;;;;;;;1.77;0.80;;;;;;;;;;5001917;28;20224;-84
2022/05/26 07:53:55;;;;;;;1.57;0.63;;;;;;;;;;5014086;28;20221;-84
2022/05/26 07:57:01;;;;;;;3.13;0.80;;;;;;;;;;5012296;28;20197;-84
2022/05/26 08:00:07;;;;;;;3.13;0.87;;;;;;;;;;4993546;28;20178;-84
2022/05/26 08:03:15;;;;;;;2.20;0.73;;;;;;;;;;4983077;28;20186;-84
2022/05/26 08:06:20;;;;;;;2.37;0.73;;;;;;;;;;5005498;28;20201;-83
2022/05/26 08:09:24;;;;;;;3.40;0.60;;;;;;;;;;5012707;28;20193;-83
2022/05/26 08:12:28;;;;;;;2.50;0.80;;;;;;;;;;5011365;28;20232;-84
2022/05/26 08:15:34;;;;;;;1.73;0.90;;;;;;;;;;5001597;28;20209;-83
2022/05/26 08:18:38;;;;;;;3.17;0.73;;;;;;;;;;5013237;28;20177;-83
2022/05/26 08:21:42;;;;;;;1.97;0.70;;;;;;;;;;5012563;28;20222;-84
2022/05/26 08:24:54;;;;;;;1.77;0.80;;;;;;;;;;5012598;28;20552;-83
2022/05/26 08:27:59;;;;;;;3.40;0.80;;;;;;;;;;4990470;28;20189;-84
2022/05/26 08:31:04;;;;;;;2.40;0.80;;;;;;;;;;5012501;28;20690;-84
2022/05/26 08:34:08;;;;;;;2.27;0.73;;;;;;;;;;5012749;28;20217;-83
2022/05/26 08:37:18;;;;;;;2.20;0.70;;;;;;;;;;5012617;28;20560;-84
2022/05/26 08:40:50;;;;;;;3.00;0.50;;;;;;;;;;5013257;28;20190;-84
2022/05/26 08:44:00;;;;;;;3.92;0.77;;;;;;;;;;5001278;28;20666;-84
2022/05/26 08:47:19;;;;;;;1.25;0.50;;;;;;;;;;5016103;28;20196;-83
2022/05/26 08:50:32;;;;;;;0.83;0.50;;;;;;;;;;5005053;28;20194;-84
2022/05/26 08:53:40;;;;;;;2.53;0.60;;;;;;;;;;5005028;28;20183;-83
2022/05/26 08:56:47;;;;;;;7.97;1.23;;;;;;;;;;5017021;28;20183;-83
2022/05/26 08:59:51;;;;;;;1.87;0.50;;;;;;;;;;5016272;28;20191;-84
2022/05/26 09:02:58;;;;;;;2.70;0.70;;;;;;;;;;4993506;28;20186;-83
2022/05/26 09:06:17;;;;;;;3.17;0.70;;;;;;;;;;5004666;28;20191;-83
2022/05/26 09:12:58;;;;;;;3.60;0.67;;;;;;;;;;5015315;28;20231;-84
2022/05/26 09:16:03;;;;;;;2.30;0.50;;;;;;;;;;5027007;28;20191;-84
2022/05/26 09:19:13;;;;;;;1.00;0.50;;;;;;;;;;5004780;28;20185;-83
2022/05/26 09:22:46;;;;;;;2.40;0.57;;;;;;;;;;5004500;28;20220;-83
2022/05/26 09:26:06;;;;;;;2.27;0.77;;;;;;;;;;5004286;28;20196;-84
2022/05/26 09:29:11;;;;;;;2.03;0.60;;;;;;;;;;5014845;28;20195;-83
2022/05/26 09:32:17;;;;;;;2.57;0.67;;;;;;;;;;5015275;28;20221;-83
2022/05/26 09:35:22;;;;;;;4.25;0.60;;;;;;;;;;5005657;28;20211;-84
2022/05/26 09:38:32;;;;;;;6.43;0.52;;;;;;;;;;5016204;28;20648;-83
2022/05/26 09:41:52;;;;;;;2.53;0.82;;;;;;;;;;5015052;28;20217;-83
2022/05/26 09:45:03;;;;;;;1.42;0.63;;;;;;;;;;4982686;28;20186;-83
2022/05/26 09:48:24;;;;;;;1.15;0.63;;;;;;;;;;5015140;28;20197;-82
2022/05/26 09:51:44;;;;;;;1.42;0.50;;;;;;;;;;4997459;28;20214;-83
2022/05/26 09:54:49;;;;;;;2.53;0.70;;;;;;;;;;4997526;28;20214;-83
2022/05/26 09:58:06;;;;;;;0.93;0.40;;;;;;;;;;5004891;28;20189;-82
2022/05/26 10:01:29;;;;;;;3.33;0.98;;;;;;;;;;5004352;28;20219;-83
2022/05/26 10:04:39;;;;;;;4.50;1.55;;;;;;;;;;4992970;28;20185;-83
2022/05/26 10:08:05;;;;;;;2.80;0.73;;;;;;;;;;5005037;28;20187;-83
2022/05/26 10:11:36;;;;;;;1.98;0.60;;;;;;;;;;5014757;28;20235;-83
2022/05/26 10:14:47;;;;;;;1.05;0.70;;;;;;;;;;5008702;28;20216;-84
2022/05/26 10:18:20;;;;;;;8.25;0.50;;;;;;;;;;5002185;28;20191;-83
2022/05/26 10:21:41;;;;;;;0.95;0.57;;;;;;;;;;5002667;28;20692;-83
2022/05/26 10:24:59;;;;;;;1.67;0.45;;;;;;;;;;5007075;28;20192;-83
2022/05/26 10:28:15;;;;;;;1.48;0.40;;;;;;;;;;5019434;28;20191;-83
2022/05/26 10:31:58;;;;;;;0.95;0.50;;;;;;;;;;5011858;28;20216;-84
2022/05/26 10:35:31;;;;;;;0.98;0.50;;;;;;;;;;5018681;28;20679;-84
2022/05/26 10:38:41;;;;;;;2.90;0.50;;;;;;;;;;5019782;28;20182;-84
2022/05/26 10:42:07;;;;;;;2.17;0.50;;;;;;;;;;5003034;28;20217;-84
2022/05/26 10:45:16;;;;;;;1.70;0.40;;;;;;;;;;4994310;28;20179;-83
2022/05/26 10:48:37;;;;;;;0.40;0.40;;;;;;;;;;5007901;28;20184;-83
2022/05/26 10:51:43;;;;;;;1.90;0.60;;;;;;;;;;5012913;28;20214;-83
2022/05/26 10:54:55;;;;;;;1.98;0.40;;;;;;;;;;5003756;28;20211;-83
2022/05/26 10:58:05;;;;;;;0.90;0.40;;;;;;;;;;5003327;28;20635;-84
2022/05/26 11:01:33;;;;;;;2.72;0.65;;;;;;;;;;4991749;28;20215;-84
2022/05/26 11:05:05;;;;;;;1.48;0.52;;;;;;;;;;5002356;28;20193;-84
2022/05/26 11:08:24;;;;;;;1.17;0.30;;;;;;;;;;5013021;28;20196;-84
2022/05/26 11:11:34;;;;;;;3.67;0.60;;;;;;;;;;5043417;22;20216;-83
2022/05/26 11:18:21;;;;;;;2.55;0.55;;;;;;;;;;5039702;28;20199;-86
2022/05/26 11:21:25;;;;;;;2.25;0.50;;;;;;;;;;5021039;28;20176;-86
2022/05/26 11:24:30;;;;;;;0.70;0.60;;;;;;;;;;5021080;28;20183;-85
2022/05/26 11:27:42;;;;;;;1.17;0.60;;;;;;;;;;5020034;28;20635;-85
2022/05/26 11:37:55;;;;;;;1.83;0.53;;;;;;;;;;4991641;28;20192;-85
2022/05/26 11:41:09;;;;;;;1.57;0.60;;;;;;;;;;5002970;28;20193;-85
2022/05/26 11:44:30;;;;;;;1.67;0.60;;;;;;;;;;4993929;28;20182;-84
2022/05/26 11:47:50;;;;;;;1.00;0.60;;;;;;;;;;4991978;28;20191;-84
2022/05/26 11:51:00;;;;;;;2.00;0.80;;;;;;;;;;4991955;28;20209;-85
2022/05/26 11:54:05;;;;;;;3.03;0.70;;;;;;;;;;4992051;28;20185;-84
2022/05/26 11:57:36;;;;;;;1.43;0.70;;;;;;;;;;5023058;28;20190;-85
2022/05/26 12:00:43;;;;;;;4.10;0.80;;;;;;;;;;5019309;28;20180;-86
2022/05/26 12:03:53;;;;;;;0.90;0.50;;;;;;;;;;5030282;28;20176;-85
2022/05/26 12:07:01;;;;;;;2.00;0.70;;;;;;;;;;5019297;28;20520;-85
2022/05/26 12:10:21;;;;;;;1.37;0.50;;;;;;;;;;5019304;28;20623;-85
2022/05/26 12:13:32;;;;;;;2.83;0.80;;;;;;;;;;4991164;28;20229;-84
2022/05/26 12:16:36;;;;;;;2.80;0.60;;;;;;;;;;4996563;28;20216;-85
2022/05/26 12:19:43;;;;;;;2.97;0.67;;;;;;;;;;5012451;28;20520;-84
2022/05/26 12:22:47;;;;;;;1.33;0.50;;;;;;;;;;5015314;28;20216;-85
2022/05/26 12:26:28;;;;;;;0.90;0.60;;;;;;;;;;5003949;28;20173;-84
2022/05/26 12:29:41;;;;;;;2.53;0.60;;;;;;;;;;5004008;28;20177;-84
2022/05/26 12:32:52;;;;;;;2.43;0.83;;;;;;;;;;5003959;28;20566;-85
2022/05/26 12:36:17;;;;;;;1.13;0.60;;;;;;;;;;5004223;28;20212;-84
2022/05/26 12:39:55;;;;;;;1.03;0.60;;;;;;;;;;5003962;28;20628;-85
2022/05/26 12:43:18;;;;;;;1.47;0.60;;;;;;;;;;5003807;28;20213;-84
2022/05/26 12:46:58;;;;;;;2.83;0.80;;;;;;;;;;5014779;28;20185;-85
2022/05/26 12:50:09;;;;;;;2.00;0.73;;;;;;;;;;4976514;28;20182;-84
2022/05/26 12:53:20;;;;;;;3.63;0.60;;;;;;;;;;5014707;28;20216;-84
2022/05/26 12:56:59;;;;;;;0.83;0.53;;;;;;;;;;5003922;28;20549;-84
2022/05/26 13:00:37;;;;;;;2.73;0.80;;;;;;;;;;5015413;28;20540;-84
2022/05/26 13:03:51;;;;;;;1.10;0.70;;;;;;;;;;5015064;28;20170;-84
2022/05/26 13:06:55;;;;;;;5.30;0.60;;;;;;;;;;5026298;28;20175;-84
2022/05/26 13:09:59;;;;;;;0.80;0.60;;;;;;;;;;5004209;28;20181;-84
2022/05/26 13:13:40;;;;;;;1.70;0.70;;;;;;;;;;5014309;28;20565;-84
2022/05/26 13:16:44;;;;;;;2.27;0.60;;;;;;;;;;5025474;28;20209;-84
2022/05/26 13:20:00;;;;;;;3.00;0.70;;;;;;;;;;5013962;28;20190;-84
2022/05/26 13:23:08;;;;;;;3.10;0.80;;;;;;;;;;5013284;28;20219;-84
2022/05/26 13:26:13;;;;;;;1.80;0.60;;;;;;;;;;5014627;28;20199;-87
2022/05/26 13:29:18;;;;;;;1.03;0.50;;;;;;;;;;4993303;28;20181;-85
2022/05/26 13:35:51;;;;;;;0.70;0.50;;;;;;;;;;5006252;28;20217;-86
2022/05/26 13:39:02;;;;;;;1.80;0.50;;;;;;;;;;5017988;28;20189;-85
2022/05/26 13:42:07;;;;;;;2.27;0.50;;;;;;;;;;5032668;28;20222;-85
2022/05/26 13:45:24;;;;;;;2.10;0.43;;;;;;;;;;5021713;28;20200;-84
2022/05/26 13:48:37;;;;;;;1.33;0.57;;;;;;;;;;5022416;28;20192;-84
2022/05/26 13:51:44;;;;;;;1.60;0.50;;;;;;;;;;5002780;28;20215;-84
2022/05/26 13:55:03;;;;;;;14.73;1.13;;;;;;;;;;5001795;28;20182;-84
2022/05/26 13:58:07;;;;;;;1.77;0.60;;;;;;;;;;5002650;28;20641;-84
2022/05/26 14:01:12;;;;;;;0.60;0.60;;;;;;;;;;5013225;28;20518;-84
2022/05/26 14:04:40;;;;;;;2.17;0.60;;;;;;;;;;5013149;28;20189;-84
2022/05/26 14:07:47;;;;;;;1.43;0.60;;;;;;;;;;5004976;28;20186;-86
2022/05/26 14:10:54;;;;;;;1.33;0.50;;;;;;;;;;5002241;28;20193;-83
2022/05/26 14:14:38;;;;;;;1.33;0.60;;;;;;;;;;5027390;28;20200;-83
2022/05/26 14:17:43;;;;;;;1.50;0.70;;;;;;;;;;5033017;28;20180;-83
2022/05/26 14:21:13;;;;;;;1.83;0.40;;;;;;;;;;5032894;28;20523;-83
2022/05/26 14:24:29;;;;;;;2.40;0.50;;;;;;;;;;5044686;28;20179;-83
2022/05/26 14:27:56;;;;;;;2.17;0.63;;;;;;;;;;5033561;28;20179;-83
2022/05/26 14:31:02;;;;;;;2.57;0.60;;;;;;;;;;5021515;28;20184;-83
2022/05/26 14:34:33;;;;;;;3.73;0.80;;;;;;;;;;5032596;28;20176;-82
2022/05/26 14:37:37;;;;;;;3.50;0.70;;;;;;;;;;5032346;28;20236;-82
2022/05/26 14:40:42;;;;;;;2.33;0.53;;;;;;;;;;5032655;28;20178;-83
2022/05/26 14:43:46;;;;;;;1.30;0.60;;;;;;;;;;5032240;28;20190;-83
2022/05/26 14:46:51;;;;;;;3.43;0.70;;;;;;;;;;5032936;28;20177;-83
2022/05/26 14:49:55;;;;;;;0.90;0.50;;;;;;;;;;5033157;28;20625;-83
2022/05/26 14:53:02;;;;;;;1.73;0.60;;;;;;;;;;5032021;28;20215;-83
2022/05/26 14:56:06;;;;;;;1.90;0.60;;;;;;;;;;5021230;28;20204;-83
2022/05/26 14:59:10;;;;;;;1.03;0.50;;;;;;;;;;5043732;28;20182;-82
2022/05/26 15:02:15;;;;;;;0.97;0.47;;;;;;;;;;5032264;28;20225;-83
2022/05/26 15:05:19;;;;;;;2.17;0.80;;;;;;;;;;5049771;28;20199;-83
2022/05/26 15:08:41;;;;;;;1.40;0.60;;;;;;;;;;5045051;28;20176;-83
2022/05/26 15:11:49;;;;;;;0.60;0.57;;;;;;;;;;5044387;28;20220;-83
2022/05/26 15:14:52;;;;;;;1.13;0.53;;;;;;;;;;5043266;28;20173;-82
2022/05/26 15:17:57;;;;;;;3.33;0.67;;;;;;;;;;5043051;28;20513;-83
2022/05/26 15:21:01;;;;;;;1.83;0.53;;;;;;;;;;5043129;28;20180;-82
2022/05/26 15:24:05;;;;;;;2.77;0.50;;;;;;;;;;5042729;28;20179;-82
2022/05/26 15:27:12;;;;;;;1.53;0.50;;;;;;;;;;5031772;28;20504;-83
2022/05/26 15:30:20;;;;;;;2.23;0.50;;;;;;;;;;5020879;28;20181;-83
2022/05/26 15:33:24;;;;;;;1.47;0.50;;;;;;;;;;5042486;28;20220;-82
2022/05/26 15:36:30;;;;;;;0.70;0.50;;;;;;;;;;5031451;28;20672;-83
2022/05/26 15:39:34;;;;;;;0.90;0.60;;;;;;;;;;5044068;28;20182;-83
2022/05/26 15:42:38;;;;;;;0.77;0.50;;;;;;;;;;5043540;28;20220;-83
2022/05/26 15:45:43;;;;;;;2.70;0.80;;;;;;;;;;5042851;28;20508;-83
2022/05/26 15:48:47;;;;;;;1.23;0.60;;;;;;;;;;5019470;28;20536;-83
2022/05/26 15:51:52;;;;;;;1.50;0.70;;;;;;;;;;5020298;28;20216;-83
2022/05/26 15:54:56;;;;;;;1.63;0.60;;;;;;;;;;5042321;28;20172;-83
2022/05/26 15:58:00;;;;;;;1.27;0.70;;;;;;;;;;5031627;28;20172;-82
2022/05/26 16:01:05;;;;;;;4.13;0.60;;;;;;;;;;5030965;28;20172;-83
2022/05/26 16:04:09;;;;;;;2.97;0.70;;;;;;;;;;5019896;28;20196;-83
2022/05/26 16:07:16;;;;;;;2.60;0.50;;;;;;;;;;5019258;28;20188;-83
2022/05/26 16:10:25;;;;;;;3.10;0.80;;;;;;;;;;5031505;28;20180;-83
2022/05/26 16:13:29;;;;;;;2.03;0.60;;;;;;;;;;5019717;28;20224;-82
2022/05/26 16:16:33;;;;;;;1.00;0.70;;;;;;;;;;5042478;28;20219;-82
2022/05/26 16:19:37;;;;;;;1.40;0.70;;;;;;;;;;5054681;28;20188;-83
2022/05/26 16:22:44;;;;;;;1.63;0.73;;;;;;;;;;5030896;28;20216;-83
2022/05/26 16:25:58;;;;;;;1.33;0.70;;;;;;;;;;5042062;28;20180;-83
2022/05/26 16:29:06;;;;;;;3.33;1.03;;;;;;;;;;5030988;28;20623;-82
2022/05/26 16:32:10;;;;;;;3.70;0.77;;;;;;;;;;5031011;28;20212;-83
2022/05/26 16:38:39;;;;;;;0.63;0.50;;;;;;;;;;5042156;28;20176;-82
2022/05/26 16:41:44;;;;;;;4.10;0.60;;;;;;;;;;5030673;28;20208;-82
2022/05/26 16:44:48;;;;;;;2.97;0.50;;;;;;;;;;5030954;28;20184;-82
2022/05/26 16:47:52;;;;;;;2.53;0.70;;;;;;;;;;5042416;28;20176;-83
2022/05/26 16:51:02;;;;;;;1.47;0.60;;;;;;;;;;5020002;28;20264;-82
2022/05/26 16:54:25;;;;;;;2.77;0.70;;;;;;;;;;5030623;28;20181;-82
2022/05/26 16:57:29;;;;;;;0.97;0.70;;;;;;;;;;5031277;28;20208;-82
2022/05/26 17:00:33;;;;;;;0.90;0.60;;;;;;;;;;5041753;28;20199;-83
2022/05/26 17:03:37;;;;;;;1.37;0.70;;;;;;;;;;5030482;28;20188;-83
2022/05/26 17:06:42;;;;;;;3.37;0.70;;;;;;;;;;5043523;28;20180;-82
2022/05/26 17:09:46;;;;;;;3.17;0.77;;;;;;;;;;5045567;28;20184;-82
2022/05/26 17:22:57;;;;;;;3.60;0.73;;;;;;;;;;5052559;28;20223;-83
2022/05/26 17:26:02;;;;;;;1.00;0.90;;;;;;;;;;5032708;28;20180;-83
2022/05/26 17:29:07;;;;;;;2.33;0.90;;;;;;;;;;5033944;28;20188;-83
2022/05/26 17:32:12;;;;;;;1.50;0.70;;;;;;;;;;5021386;28;20216;-83
2022/05/26 17:35:16;;;;;;;1.37;0.63;;;;;;;;;;5021571;28;20180;-82
2022/05/26 17:38:22;;;;;;;0.80;0.67;;;;;;;;;;4996976;28;20208;-82
2022/05/26 17:41:38;;;;;;;1.23;0.67;;;;;;;;;;4999459;28;20185;-82
2022/05/26 17:44:43;;;;;;;3.03;0.83;;;;;;;;;;5010232;28;20185;-82
2022/05/26 17:47:47;;;;;;;1.93;0.80;;;;;;;;;;5011115;28;20182;-83
2022/05/26 17:50:52;;;;;;;2.40;0.77;;;;;;;;;;5004050;28;20185;-83
2022/05/26 17:53:57;;;;;;;2.47;0.90;;;;;;;;;;5003983;28;20221;-82
2022/05/26 17:57:01;;;;;;;1.17;0.70;;;;;;;;;;4999242;28;20212;-83
2022/05/26 18:03:41;;;;;;;1.57;0.70;;;;;;;;;;4992162;28;20225;-82
2022/05/26 18:06:47;;;;;;;2.43;0.77;;;;;;;;;;4981476;28;20636;-83
2022/05/26 18:09:52;;;;;;;3.37;0.80;;;;;;;;;;4992431;28;20186;-82
2022/05/26 18:12:57;;;;;;;2.60;0.60;;;;;;;;;;4992377;28;20216;-83
2022/05/26 18:16:05;;;;;;;2.20;0.80;;;;;;;;;;4992470;28;20526;-83
2022/05/26 18:19:14;;;;;;;0.93;0.70;;;;;;;;;;4992760;28;20182;-82
2022/05/26 18:22:20;;;;;;;1.30;0.83;;;;;;;;;;5003425;28;20225;-83
2022/05/26 18:25:24;;;;;;;1.53;0.70;;;;;;;;;;5003542;28;20181;-83
2022/05/26 18:28:28;;;;;;;1.93;0.80;;;;;;;;;;5014536;28;20193;-83
2022/05/26 18:31:36;;;;;;;1.87;0.73;;;;;;;;;;4991986;28;20205;-83
2022/05/26 18:34:46;;;;;;;4.60;0.83;;;;;;;;;;4992022;28;20186;-83
2022/05/26 18:37:50;;;;;;;2.23;0.90;;;;;;;;;;4991813;28;20201;-82
2022/05/26 18:40:54;;;;;;;1.60;0.70;;;;;;;;;;5013619;28;20188;-82
2022/05/26 18:43:59;;;;;;;0.90;0.60;;;;;;;;;;5019869;28;20212;-83
2022/05/26 18:47:05;;;;;;;2.43;0.77;;;;;;;;;;4980668;28;20174;-83
2022/05/26 18:50:14;;;;;;;2.50;0.70;;;;;;;;;;4991993;28;20178;-83
2022/05/26 18:53:19;;;;;;;2.50;0.90;;;;;;;;;;5015004;28;20213;-82
2022/05/26 18:56:23;;;;;;;2.03;0.90;;;;;;;;;;4991408;28;20201;-82
2022/05/26 18:59:28;;;;;;;2.23;0.90;;;;;;;;;;5002688;28;20189;-82
2022/05/26 19:02:33;;;;;;;5.87;1.17;;;;;;;;;;5014403;28;20216;-83
2022/05/26 19:05:40;;;;;;;3.00;0.70;;;;;;;;;;5030718;28;20196;-83
2022/05/26 19:08:47;;;;;;;4.77;1.07;;;;;;;;;;5041915;28;20200;-83
2022/05/26 19:11:54;;;;;;;3.77;0.80;;;;;;;;;;5030633;28;20172;-83
2022/05/26 19:14:58;;;;;;;1.27;0.90;;;;;;;;;;5030520;28;20196;-82
2022/05/26 19:18:06;;;;;;;2.83;0.87;;;;;;;;;;5012593;28;20210;-82
2022/05/26 19:21:10;;;;;;;1.73;0.80;;;;;;;;;;4991433;28;20193;-82
2022/05/26 19:24:14;;;;;;;4.07;0.83;;;;;;;;;;4991628;28;20185;-82
2022/05/26 19:27:22;;;;;;;1.77;0.90;;;;;;;;;;4991960;28;20177;-82
2022/05/26 19:30:27;;;;;;;1.17;0.90;;;;;;;;;;5002611;28;20660;-82
2022/05/26 19:33:31;;;;;;;1.13;0.80;;;;;;;;;;5035252;28;20224;-82
2022/05/26 19:36:36;;;;;;;3.33;1.23;;;;;;;;;;5031529;28;20176;-83
2022/05/26 19:39:40;;;;;;;3.67;0.90;;;;;;;;;;5042790;28;20172;-82
2022/05/26 19:42:45;;;;;;;1.23;0.87;;;;;;;;;;5031179;28;20678;-83
2022/05/26 19:45:51;;;;;;;1.57;0.73;;;;;;;;;;5020308;28;20176;-84
2022/05/26 19:48:55;;;;;;;0.87;0.80;;;;;;;;;;5031220;28;20176;-83
2022/05/26 19:51:59;;;;;;;4.30;0.60;;;;;;;;;;5011213;28;20189;-85